sensor_id;sensor_type;location;lat;lon;timestamp;P1;durP1;ratioP1;P2;durP2;ratioP2
47762;SDS011;33526;42.690;23.322;2022-08-19T00:01:22;8.27;;;6.78;;
47762;SDS011;33526;42.690;23.322;2022-08-19T00:06:14;13.13;;;6.80;;
47762;SDS011;33526;42.690;23.322;2022-08-19T00:08:40;13.13;;;7.25;;
47762;SDS011;33526;42.690;23.322;2022-08-19T00:11:05;12.10;;;7.65;;
47762;SDS011;33526;42.690;23.322;2022-08-19T00:13:32;15.05;;;7.50;;
47762;SDS011;33526;42.690;23.322;2022-08-19T00:15:58;12.45;;;7.70;;
47762;SDS011;33526;42.690;23.322;2022-08-19T00:18:24;12.20;;;7.50;;
47762;SDS011;33526;42.690;23.322;2022-08-19T00:20:50;11.90;;;7.18;;
47762;SDS011;33526;42.690;23.322;2022-08-19T00:23:16;14.50;;;8.23;;
47762;SDS011;33526;42.690;23.322;2022-08-19T00:25:41;11.35;;;7.72;;
47762;SDS011;33526;42.690;23.322;2022-08-19T00:28:07;12.13;;;7.50;;
47762;SDS011;33526;42.690;23.322;2022-08-19T00:30:32;11.23;;;7.13;;
47762;SDS011;33526;42.690;23.322;2022-08-19T00:32:58;16.70;;;7.25;;
47762;SDS011;33526;42.690;23.322;2022-08-19T00:35:24;16.65;;;7.50;;
47762;SDS011;33526;42.690;23.322;2022-08-19T00:37:52;12.27;;;6.95;;
47762;SDS011;33526;42.690;23.322;2022-08-19T00:40:18;15.27;;;7.53;;
47762;SDS011;33526;42.690;23.322;2022-08-19T00:42:45;10.38;;;7.18;;
47762;SDS011;33526;42.690;23.322;2022-08-19T00:45:13;10.80;;;7.45;;
47762;SDS011;33526;42.690;23.322;2022-08-19T00:47:42;10.80;;;7.75;;
47762;SDS011;33526;42.690;23.322;2022-08-19T00:50:08;14.38;;;7.93;;
47762;SDS011;33526;42.690;23.322;2022-08-19T00:52:37;10.60;;;6.72;;
47762;SDS011;33526;42.690;23.322;2022-08-19T00:55:10;9.27;;;6.85;;
47762;SDS011;33526;42.690;23.322;2022-08-19T00:57:40;10.52;;;6.90;;
47762;SDS011;33526;42.690;23.322;2022-08-19T01:00:10;10.00;;;6.57;;
47762;SDS011;33526;42.690;23.322;2022-08-19T01:02:38;9.68;;;7.15;;
47762;SDS011;33526;42.690;23.322;2022-08-19T01:05:06;14.05;;;7.90;;
47762;SDS011;33526;42.690;23.322;2022-08-19T01:07:35;13.60;;;6.78;;
47762;SDS011;33526;42.690;23.322;2022-08-19T01:10:04;11.32;;;6.97;;
47762;SDS011;33526;42.690;23.322;2022-08-19T01:12:32;10.23;;;6.47;;
47762;SDS011;33526;42.690;23.322;2022-08-19T01:14:58;8.23;;;6.57;;
47762;SDS011;33526;42.690;23.322;2022-08-19T01:17:24;8.30;;;6.30;;
47762;SDS011;33526;42.690;23.322;2022-08-19T01:19:51;11.23;;;6.47;;
47762;SDS011;33526;42.690;23.322;2022-08-19T01:24:50;10.68;;;5.97;;
47762;SDS011;33526;42.690;23.322;2022-08-19T01:27:17;7.85;;;5.57;;
47762;SDS011;33526;42.690;23.322;2022-08-19T01:29:43;9.43;;;5.22;;
47762;SDS011;33526;42.690;23.322;2022-08-19T01:32:11;11.25;;;5.65;;
47762;SDS011;33526;42.690;23.322;2022-08-19T01:34:39;9.98;;;5.35;;
47762;SDS011;33526;42.690;23.322;2022-08-19T01:37:06;10.70;;;5.72;;
47762;SDS011;33526;42.690;23.322;2022-08-19T01:39:35;9.85;;;6.00;;
47762;SDS011;33526;42.690;23.322;2022-08-19T01:42:02;18.77;;;5.65;;
47762;SDS011;33526;42.690;23.322;2022-08-19T01:44:28;10.63;;;5.72;;
47762;SDS011;33526;42.690;23.322;2022-08-19T01:46:54;8.65;;;6.30;;
47762;SDS011;33526;42.690;23.322;2022-08-19T01:49:21;11.02;;;6.13;;
47762;SDS011;33526;42.690;23.322;2022-08-19T01:51:48;12.95;;;5.57;;
47762;SDS011;33526;42.690;23.322;2022-08-19T01:54:20;9.32;;;6.13;;
47762;SDS011;33526;42.690;23.322;2022-08-19T01:56:47;11.77;;;6.45;;
47762;SDS011;33526;42.690;23.322;2022-08-19T01:59:15;11.25;;;6.32;;
47762;SDS011;33526;42.690;23.322;2022-08-19T02:01:42;11.93;;;6.65;;
47762;SDS011;33526;42.690;23.322;2022-08-19T02:04:08;8.88;;;6.25;;
47762;SDS011;33526;42.690;23.322;2022-08-19T02:06:34;9.35;;;5.90;;
47762;SDS011;33526;42.690;23.322;2022-08-19T02:09:00;7.93;;;5.57;;
47762;SDS011;33526;42.690;23.322;2022-08-19T02:11:28;14.95;;;6.20;;
47762;SDS011;33526;42.690;23.322;2022-08-19T02:13:56;12.45;;;6.70;;
47762;SDS011;33526;42.690;23.322;2022-08-19T02:16:23;10.27;;;5.90;;
47762;SDS011;33526;42.690;23.322;2022-08-19T02:18:49;9.18;;;6.10;;
47762;SDS011;33526;42.690;23.322;2022-08-19T02:21:15;9.60;;;6.60;;
47762;SDS011;33526;42.690;23.322;2022-08-19T02:23:43;8.68;;;6.10;;
47762;SDS011;33526;42.690;23.322;2022-08-19T02:26:08;6.63;;;5.95;;
47762;SDS011;33526;42.690;23.322;2022-08-19T02:28:34;10.73;;;6.07;;
47762;SDS011;33526;42.690;23.322;2022-08-19T02:31:01;12.80;;;5.97;;
47762;SDS011;33526;42.690;23.322;2022-08-19T02:33:27;7.10;;;5.88;;
47762;SDS011;33526;42.690;23.322;2022-08-19T02:35:53;11.82;;;6.07;;
47762;SDS011;33526;42.690;23.322;2022-08-19T02:38:18;6.70;;;5.50;;
47762;SDS011;33526;42.690;23.322;2022-08-19T02:40:51;8.73;;;6.38;;
47762;SDS011;33526;42.690;23.322;2022-08-19T02:43:18;11.30;;;7.05;;
47762;SDS011;33526;42.690;23.322;2022-08-19T02:45:48;11.85;;;6.70;;
47762;SDS011;33526;42.690;23.322;2022-08-19T02:48:18;7.03;;;6.10;;
47762;SDS011;33526;42.690;23.322;2022-08-19T02:50:44;13.57;;;6.53;;
47762;SDS011;33526;42.690;23.322;2022-08-19T02:53:11;7.75;;;6.97;;
47762;SDS011;33526;42.690;23.322;2022-08-19T02:55:42;9.23;;;7.28;;
47762;SDS011;33526;42.690;23.322;2022-08-19T02:58:12;8.57;;;7.35;;
47762;SDS011;33526;42.690;23.322;2022-08-19T03:00:42;8.02;;;7.22;;
47762;SDS011;33526;42.690;23.322;2022-08-19T03:03:09;11.38;;;7.13;;
47762;SDS011;33526;42.690;23.322;2022-08-19T03:05:35;9.43;;;8.03;;
47762;SDS011;33526;42.690;23.322;2022-08-19T03:08:00;10.70;;;7.35;;
47762;SDS011;33526;42.690;23.322;2022-08-19T03:10:26;9.35;;;7.00;;
47762;SDS011;33526;42.690;23.322;2022-08-19T03:12:52;11.20;;;8.20;;
47762;SDS011;33526;42.690;23.322;2022-08-19T03:15:17;15.88;;;7.43;;
47762;SDS011;33526;42.690;23.322;2022-08-19T03:17:43;10.65;;;7.10;;
47762;SDS011;33526;42.690;23.322;2022-08-19T03:20:08;12.13;;;7.90;;
47762;SDS011;33526;42.690;23.322;2022-08-19T03:22:34;13.75;;;7.72;;
47762;SDS011;33526;42.690;23.322;2022-08-19T03:25:01;9.90;;;7.18;;
47762;SDS011;33526;42.690;23.322;2022-08-19T03:27:27;11.13;;;7.45;;
47762;SDS011;33526;42.690;23.322;2022-08-19T03:29:52;10.77;;;7.07;;
47762;SDS011;33526;42.690;23.322;2022-08-19T03:32:18;8.27;;;7.15;;
47762;SDS011;33526;42.690;23.322;2022-08-19T03:34:43;10.50;;;7.82;;
47762;SDS011;33526;42.690;23.322;2022-08-19T03:37:09;12.73;;;8.80;;
47762;SDS011;33526;42.690;23.322;2022-08-19T03:39:37;11.23;;;7.93;;
47762;SDS011;33526;42.690;23.322;2022-08-19T03:42:03;11.85;;;7.72;;
47762;SDS011;33526;42.690;23.322;2022-08-19T03:44:30;11.80;;;7.47;;
47762;SDS011;33526;42.690;23.322;2022-08-19T03:46:58;9.70;;;7.30;;
47762;SDS011;33526;42.690;23.322;2022-08-19T03:49:25;12.50;;;8.13;;
47762;SDS011;33526;42.690;23.322;2022-08-19T03:51:54;9.60;;;7.68;;
47762;SDS011;33526;42.690;23.322;2022-08-19T03:54:22;10.30;;;8.00;;
47762;SDS011;33526;42.690;23.322;2022-08-19T03:59:16;10.00;;;8.15;;
47762;SDS011;33526;42.690;23.322;2022-08-19T04:01:45;9.30;;;7.85;;
47762;SDS011;33526;42.690;23.322;2022-08-19T04:04:12;12.13;;;8.70;;
47762;SDS011;33526;42.690;23.322;2022-08-19T04:06:37;9.73;;;6.95;;
47762;SDS011;33526;42.690;23.322;2022-08-19T04:09:05;11.18;;;8.50;;
47762;SDS011;33526;42.690;23.322;2022-08-19T04:11:36;12.70;;;7.97;;
47762;SDS011;33526;42.690;23.322;2022-08-19T04:14:06;12.32;;;8.27;;
47762;SDS011;33526;42.690;23.322;2022-08-19T04:16:34;11.60;;;7.97;;
47762;SDS011;33526;42.690;23.322;2022-08-19T04:19:00;14.65;;;8.32;;
47762;SDS011;33526;42.690;23.322;2022-08-19T04:21:26;18.42;;;8.80;;
47762;SDS011;33526;42.690;23.322;2022-08-19T04:23:53;13.63;;;8.43;;
47762;SDS011;33526;42.690;23.322;2022-08-19T04:26:22;13.40;;;8.48;;
47762;SDS011;33526;42.690;23.322;2022-08-19T04:28:52;15.68;;;8.52;;
47762;SDS011;33526;42.690;23.322;2022-08-19T04:31:20;11.38;;;8.15;;
47762;SDS011;33526;42.690;23.322;2022-08-19T04:33:47;18.10;;;7.95;;
47762;SDS011;33526;42.690;23.322;2022-08-19T04:36:17;12.18;;;7.75;;
47762;SDS011;33526;42.690;23.322;2022-08-19T04:38:45;15.10;;;9.05;;
47762;SDS011;33526;42.690;23.322;2022-08-19T04:41:11;16.80;;;9.33;;
47762;SDS011;33526;42.690;23.322;2022-08-19T04:43:55;13.65;;;8.60;;
47762;SDS011;33526;42.690;23.322;2022-08-19T04:46:21;12.70;;;8.10;;
47762;SDS011;33526;42.690;23.322;2022-08-19T04:48:46;12.45;;;8.77;;
47762;SDS011;33526;42.690;23.322;2022-08-19T04:51:12;14.95;;;8.60;;
47762;SDS011;33526;42.690;23.322;2022-08-19T04:53:38;14.93;;;8.98;;
47762;SDS011;33526;42.690;23.322;2022-08-19T04:56:11;15.27;;;9.50;;
47762;SDS011;33526;42.690;23.322;2022-08-19T04:58:39;10.15;;;8.52;;
47762;SDS011;33526;42.690;23.322;2022-08-19T05:01:07;19.08;;;8.63;;
47762;SDS011;33526;42.690;23.322;2022-08-19T05:03:44;11.55;;;8.65;;
47762;SDS011;33526;42.690;23.322;2022-08-19T05:06:10;14.98;;;8.63;;
47762;SDS011;33526;42.690;23.322;2022-08-19T05:08:38;20.63;;;8.73;;
47762;SDS011;33526;42.690;23.322;2022-08-19T05:11:16;14.27;;;8.95;;
47762;SDS011;33526;42.690;23.322;2022-08-19T05:13:45;13.02;;;8.20;;
47762;SDS011;33526;42.690;23.322;2022-08-19T05:16:13;16.95;;;8.82;;
47762;SDS011;33526;42.690;23.322;2022-08-19T05:18:39;16.05;;;9.43;;
47762;SDS011;33526;42.690;23.322;2022-08-19T05:21:23;16.35;;;9.98;;
47762;SDS011;33526;42.690;23.322;2022-08-19T05:24:08;16.55;;;9.80;;
47762;SDS011;33526;42.690;23.322;2022-08-19T05:26:37;17.95;;;10.13;;
47762;SDS011;33526;42.690;23.322;2022-08-19T05:29:05;16.52;;;9.88;;
47762;SDS011;33526;42.690;23.322;2022-08-19T05:31:32;15.80;;;11.07;;
47762;SDS011;33526;42.690;23.322;2022-08-19T05:33:58;15.02;;;10.85;;
47762;SDS011;33526;42.690;23.322;2022-08-19T05:36:26;16.13;;;10.20;;
47762;SDS011;33526;42.690;23.322;2022-08-19T05:38:53;15.77;;;9.57;;
47762;SDS011;33526;42.690;23.322;2022-08-19T05:41:20;20.58;;;10.13;;
47762;SDS011;33526;42.690;23.322;2022-08-19T05:43:54;15.85;;;9.57;;
47762;SDS011;33526;42.690;23.322;2022-08-19T05:46:20;22.35;;;11.18;;
47762;SDS011;33526;42.690;23.322;2022-08-19T05:48:47;15.68;;;9.95;;
47762;SDS011;33526;42.690;23.322;2022-08-19T05:51:13;15.52;;;9.48;;
47762;SDS011;33526;42.690;23.322;2022-08-19T05:53:39;17.08;;;9.50;;
47762;SDS011;33526;42.690;23.322;2022-08-19T05:56:05;17.02;;;10.25;;
47762;SDS011;33526;42.690;23.322;2022-08-19T05:58:32;17.50;;;10.35;;
47762;SDS011;33526;42.690;23.322;2022-08-19T06:00:58;22.00;;;10.47;;
47762;SDS011;33526;42.690;23.322;2022-08-19T06:03:29;13.95;;;10.43;;
47762;SDS011;33526;42.690;23.322;2022-08-19T06:05:58;12.40;;;10.25;;
47762;SDS011;33526;42.690;23.322;2022-08-19T06:08:25;18.77;;;9.63;;
47762;SDS011;33526;42.690;23.322;2022-08-19T06:13:17;14.65;;;8.55;;
47762;SDS011;33526;42.690;23.322;2022-08-19T06:15:44;15.95;;;9.48;;
47762;SDS011;33526;42.690;23.322;2022-08-19T06:20:38;16.30;;;8.65;;
47762;SDS011;33526;42.690;23.322;2022-08-19T06:23:04;15.75;;;10.10;;
47762;SDS011;33526;42.690;23.322;2022-08-19T06:25:30;18.08;;;10.35;;
47762;SDS011;33526;42.690;23.322;2022-08-19T06:27:55;20.60;;;9.48;;
47762;SDS011;33526;42.690;23.322;2022-08-19T06:30:21;22.25;;;10.27;;
47762;SDS011;33526;42.690;23.322;2022-08-19T06:32:46;19.05;;;10.95;;
47762;SDS011;33526;42.690;23.322;2022-08-19T06:35:12;15.40;;;8.95;;
47762;SDS011;33526;42.690;23.322;2022-08-19T06:37:39;14.80;;;10.20;;
47762;SDS011;33526;42.690;23.322;2022-08-19T06:40:05;12.18;;;9.25;;
47762;SDS011;33526;42.690;23.322;2022-08-19T06:42:33;15.57;;;9.10;;
47762;SDS011;33526;42.690;23.322;2022-08-19T06:45:00;17.02;;;9.38;;
47762;SDS011;33526;42.690;23.322;2022-08-19T06:47:28;19.33;;;9.20;;
47762;SDS011;33526;42.690;23.322;2022-08-19T06:49:54;15.68;;;8.95;;
47762;SDS011;33526;42.690;23.322;2022-08-19T06:52:26;21.15;;;10.90;;
47762;SDS011;33526;42.690;23.322;2022-08-19T06:54:52;16.27;;;9.70;;
47762;SDS011;33526;42.690;23.322;2022-08-19T06:57:19;10.77;;;8.13;;
47762;SDS011;33526;42.690;23.322;2022-08-19T06:59:44;13.63;;;9.13;;
47762;SDS011;33526;42.690;23.322;2022-08-19T07:02:10;18.25;;;8.25;;
47762;SDS011;33526;42.690;23.322;2022-08-19T07:04:35;20.20;;;9.35;;
47762;SDS011;33526;42.690;23.322;2022-08-19T07:07:07;38.67;;;28.73;;
47762;SDS011;33526;42.690;23.322;2022-08-19T07:09:37;16.83;;;9.50;;
47762;SDS011;33526;42.690;23.322;2022-08-19T07:12:05;16.73;;;8.50;;
47762;SDS011;33526;42.690;23.322;2022-08-19T07:14:32;14.80;;;9.20;;
47762;SDS011;33526;42.690;23.322;2022-08-19T07:17:03;18.65;;;8.88;;
47762;SDS011;33526;42.690;23.322;2022-08-19T07:19:30;22.20;;;8.93;;
47762;SDS011;33526;42.690;23.322;2022-08-19T07:21:56;15.23;;;9.10;;
47762;SDS011;33526;42.690;23.322;2022-08-19T07:24:25;19.17;;;9.25;;
47762;SDS011;33526;42.690;23.322;2022-08-19T07:26:52;14.20;;;8.88;;
47762;SDS011;33526;42.690;23.322;2022-08-19T07:29:21;10.73;;;7.88;;
47762;SDS011;33526;42.690;23.322;2022-08-19T07:31:49;15.68;;;8.82;;
47762;SDS011;33526;42.690;23.322;2022-08-19T07:34:16;13.38;;;8.25;;
47762;SDS011;33526;42.690;23.322;2022-08-19T07:36:42;24.13;;;8.93;;
47762;SDS011;33526;42.690;23.322;2022-08-19T07:39:10;19.27;;;8.93;;
47762;SDS011;33526;42.690;23.322;2022-08-19T07:41:37;10.43;;;7.38;;
47762;SDS011;33526;42.690;23.322;2022-08-19T07:44:03;15.50;;;8.02;;
47762;SDS011;33526;42.690;23.322;2022-08-19T07:46:32;10.20;;;6.75;;
47762;SDS011;33526;42.690;23.322;2022-08-19T07:49:00;11.15;;;7.30;;
47762;SDS011;33526;42.690;23.322;2022-08-19T07:51:27;10.73;;;7.95;;
47762;SDS011;33526;42.690;23.322;2022-08-19T07:53:53;13.68;;;7.55;;
47762;SDS011;33526;42.690;23.322;2022-08-19T07:56:19;14.73;;;7.10;;
47762;SDS011;33526;42.690;23.322;2022-08-19T07:58:46;15.25;;;7.93;;
47762;SDS011;33526;42.690;23.322;2022-08-19T08:01:18;20.73;;;7.85;;
47762;SDS011;33526;42.690;23.322;2022-08-19T08:03:46;14.73;;;6.53;;
47762;SDS011;33526;42.690;23.322;2022-08-19T08:06:31;18.00;;;8.05;;
47762;SDS011;33526;42.690;23.322;2022-08-19T08:09:16;18.02;;;12.85;;
47762;SDS011;33526;42.690;23.322;2022-08-19T08:14:19;14.10;;;7.60;;
47762;SDS011;33526;42.690;23.322;2022-08-19T08:16:47;9.73;;;7.15;;
47762;SDS011;33526;42.690;23.322;2022-08-19T08:19:15;12.07;;;6.38;;
47762;SDS011;33526;42.690;23.322;2022-08-19T08:21:42;10.65;;;6.55;;
47762;SDS011;33526;42.690;23.322;2022-08-19T08:24:09;8.57;;;6.30;;
47762;SDS011;33526;42.690;23.322;2022-08-19T08:26:36;15.95;;;6.80;;
47762;SDS011;33526;42.690;23.322;2022-08-19T08:29:01;18.27;;;7.18;;
47762;SDS011;33526;42.690;23.322;2022-08-19T08:31:27;11.30;;;7.00;;
47762;SDS011;33526;42.690;23.322;2022-08-19T08:33:53;12.93;;;7.60;;
47762;SDS011;33526;42.690;23.322;2022-08-19T08:36:19;8.80;;;7.47;;
47762;SDS011;33526;42.690;23.322;2022-08-19T08:38:45;12.97;;;7.83;;
47762;SDS011;33526;42.690;23.322;2022-08-19T08:41:22;15.13;;;7.72;;
47762;SDS011;33526;42.690;23.322;2022-08-19T08:44:06;13.57;;;7.15;;
47762;SDS011;33526;42.690;23.322;2022-08-19T08:46:43;10.30;;;6.07;;
47762;SDS011;33526;42.690;23.322;2022-08-19T08:52:00;16.33;;;6.82;;
47762;SDS011;33526;42.690;23.322;2022-08-19T08:54:42;12.40;;;5.43;;
47762;SDS011;33526;42.690;23.322;2022-08-19T09:00:36;10.05;;;5.72;;
47762;SDS011;33526;42.690;23.322;2022-08-19T09:06:03;13.93;;;4.85;;
47762;SDS011;33526;42.690;23.322;2022-08-19T09:08:40;5.80;;;4.40;;
47762;SDS011;33526;42.690;23.322;2022-08-19T09:14:15;19.98;;;9.88;;
47762;SDS011;33526;42.690;23.322;2022-08-19T09:16:45;6.95;;;5.22;;
47762;SDS011;33526;42.690;23.322;2022-08-19T09:19:10;5.87;;;5.30;;
47762;SDS011;33526;42.690;23.322;2022-08-19T09:21:36;9.80;;;7.87;;
47762;SDS011;33526;42.690;23.322;2022-08-19T09:24:03;5.65;;;3.55;;
47762;SDS011;33526;42.690;23.322;2022-08-19T09:26:30;9.00;;;5.30;;
47762;SDS011;33526;42.690;23.322;2022-08-19T09:28:57;8.00;;;4.18;;
47762;SDS011;33526;42.690;23.322;2022-08-19T09:33:52;5.22;;;4.40;;
47762;SDS011;33526;42.690;23.322;2022-08-19T09:36:23;3.50;;;2.92;;
47762;SDS011;33526;42.690;23.322;2022-08-19T09:38:50;4.00;;;3.60;;
47762;SDS011;33526;42.690;23.322;2022-08-19T09:43:44;4.97;;;3.33;;
47762;SDS011;33526;42.690;23.322;2022-08-19T09:46:12;6.20;;;3.60;;
47762;SDS011;33526;42.690;23.322;2022-08-19T09:48:38;5.13;;;3.58;;
47762;SDS011;33526;42.690;23.322;2022-08-19T09:51:09;4.45;;;3.47;;
47762;SDS011;33526;42.690;23.322;2022-08-19T09:53:42;5.82;;;3.67;;
47762;SDS011;33526;42.690;23.322;2022-08-19T09:56:11;5.28;;;3.17;;
47762;SDS011;33526;42.690;23.322;2022-08-19T09:58:38;7.38;;;3.63;;
47762;SDS011;33526;42.690;23.322;2022-08-19T10:03:31;5.57;;;4.18;;
47762;SDS011;33526;42.690;23.322;2022-08-19T10:05:58;5.97;;;3.80;;
47762;SDS011;33526;42.690;23.322;2022-08-19T10:08:26;6.50;;;2.90;;
47762;SDS011;33526;42.690;23.322;2022-08-19T10:10:56;8.20;;;4.65;;
47762;SDS011;33526;42.690;23.322;2022-08-19T10:13:25;3.75;;;3.08;;
47762;SDS011;33526;42.690;23.322;2022-08-19T10:15:52;7.40;;;3.50;;
47762;SDS011;33526;42.690;23.322;2022-08-19T10:18:20;5.38;;;3.70;;
47762;SDS011;33526;42.690;23.322;2022-08-19T10:20:47;4.82;;;3.50;;
47762;SDS011;33526;42.690;23.322;2022-08-19T10:23:14;6.32;;;3.30;;
47762;SDS011;33526;42.690;23.322;2022-08-19T10:25:41;7.68;;;3.55;;
47762;SDS011;33526;42.690;23.322;2022-08-19T10:30:35;8.48;;;3.90;;
47762;SDS011;33526;42.690;23.322;2022-08-19T10:33:00;4.38;;;3.38;;
47762;SDS011;33526;42.690;23.322;2022-08-19T10:35:26;6.43;;;3.70;;
47762;SDS011;33526;42.690;23.322;2022-08-19T10:37:55;6.68;;;5.22;;
47762;SDS011;33526;42.690;23.322;2022-08-19T10:40:25;7.10;;;3.95;;
47762;SDS011;33526;42.690;23.322;2022-08-19T10:42:52;7.50;;;3.90;;
47762;SDS011;33526;42.690;23.322;2022-08-19T10:45:20;8.02;;;3.67;;
47762;SDS011;33526;42.690;23.322;2022-08-19T10:47:48;14.55;;;4.18;;
47762;SDS011;33526;42.690;23.322;2022-08-19T10:50:13;4.90;;;4.03;;
47762;SDS011;33526;42.690;23.322;2022-08-19T10:52:57;8.18;;;4.03;;
47762;SDS011;33526;42.690;23.322;2022-08-19T10:55:33;4.95;;;3.65;;
47762;SDS011;33526;42.690;23.322;2022-08-19T10:58:18;5.97;;;3.67;;
47762;SDS011;33526;42.690;23.322;2022-08-19T11:00:56;8.25;;;4.45;;
47762;SDS011;33526;42.690;23.322;2022-08-19T11:03:23;12.20;;;4.32;;
47762;SDS011;33526;42.690;23.322;2022-08-19T11:06:01;4.72;;;4.00;;
47762;SDS011;33526;42.690;23.322;2022-08-19T11:08:28;5.50;;;4.28;;
47762;SDS011;33526;42.690;23.322;2022-08-19T11:10:57;4.22;;;3.83;;
47762;SDS011;33526;42.690;23.322;2022-08-19T11:13:25;10.07;;;4.32;;
47762;SDS011;33526;42.690;23.322;2022-08-19T11:15:59;10.00;;;4.57;;
47762;SDS011;33526;42.690;23.322;2022-08-19T11:18:38;5.40;;;4.18;;
47762;SDS011;33526;42.690;23.322;2022-08-19T11:21:42;8.18;;;4.43;;
47762;SDS011;33526;42.690;23.322;2022-08-19T11:24:02;6.45;;;4.05;;
47762;SDS011;33526;42.690;23.322;2022-08-19T11:26:31;4.60;;;4.13;;
47762;SDS011;33526;42.690;23.322;2022-08-19T11:28:58;7.30;;;4.18;;
47762;SDS011;33526;42.690;23.322;2022-08-19T11:31:25;5.70;;;4.05;;
47762;SDS011;33526;42.690;23.322;2022-08-19T11:33:55;7.70;;;4.25;;
47762;SDS011;33526;42.690;23.322;2022-08-19T11:36:27;6.68;;;4.10;;
47762;SDS011;33526;42.690;23.322;2022-08-19T11:38:53;5.47;;;4.57;;
47762;SDS011;33526;42.690;23.322;2022-08-19T11:41:20;6.35;;;4.35;;
47762;SDS011;33526;42.690;23.322;2022-08-19T11:43:48;8.27;;;4.20;;
47762;SDS011;33526;42.690;23.322;2022-08-19T11:48:42;7.00;;;4.05;;
47762;SDS011;33526;42.690;23.322;2022-08-19T11:51:09;5.95;;;3.85;;
47762;SDS011;33526;42.690;23.322;2022-08-19T11:53:37;5.30;;;4.38;;
47762;SDS011;33526;42.690;23.322;2022-08-19T11:56:06;5.80;;;4.60;;
47762;SDS011;33526;42.690;23.322;2022-08-19T11:58:33;9.80;;;4.45;;
47762;SDS011;33526;42.690;23.322;2022-08-19T12:00:59;6.90;;;4.05;;
47762;SDS011;33526;42.690;23.322;2022-08-19T12:03:25;9.57;;;4.40;;
47762;SDS011;33526;42.690;23.322;2022-08-19T12:05:51;10.50;;;4.30;;
47762;SDS011;33526;42.690;23.322;2022-08-19T12:08:16;8.43;;;4.40;;
47762;SDS011;33526;42.690;23.322;2022-08-19T12:10:42;6.57;;;4.15;;
47762;SDS011;33526;42.690;23.322;2022-08-19T12:13:10;4.57;;;4.10;;
47762;SDS011;33526;42.690;23.322;2022-08-19T12:15:39;7.65;;;4.60;;
47762;SDS011;33526;42.690;23.322;2022-08-19T12:18:06;7.13;;;4.38;;
47762;SDS011;33526;42.690;23.322;2022-08-19T12:20:36;7.20;;;4.75;;
47762;SDS011;33526;42.690;23.322;2022-08-19T12:23:03;7.70;;;4.40;;
47762;SDS011;33526;42.690;23.322;2022-08-19T12:25:29;8.27;;;4.38;;
47762;SDS011;33526;42.690;23.322;2022-08-19T12:27:56;8.00;;;4.80;;
47762;SDS011;33526;42.690;23.322;2022-08-19T12:30:21;7.35;;;4.57;;
47762;SDS011;33526;42.690;23.322;2022-08-19T12:32:47;6.80;;;4.87;;
47762;SDS011;33526;42.690;23.322;2022-08-19T12:35:13;6.07;;;5.18;;
47762;SDS011;33526;42.690;23.322;2022-08-19T12:37:39;4.60;;;4.20;;
47762;SDS011;33526;42.690;23.322;2022-08-19T12:40:07;7.20;;;3.83;;
47762;SDS011;33526;42.690;23.322;2022-08-19T12:42:33;6.20;;;4.68;;
47762;SDS011;33526;42.690;23.322;2022-08-19T12:44:59;6.70;;;4.40;;
47762;SDS011;33526;42.690;23.322;2022-08-19T12:47:25;6.40;;;4.40;;
47762;SDS011;33526;42.690;23.322;2022-08-19T12:49:51;5.95;;;4.57;;
47762;SDS011;33526;42.690;23.322;2022-08-19T12:52:16;10.87;;;4.30;;
47762;SDS011;33526;42.690;23.322;2022-08-19T12:54:45;5.65;;;4.05;;
47762;SDS011;33526;42.690;23.322;2022-08-19T12:57:11;6.90;;;4.93;;
47762;SDS011;33526;42.690;23.322;2022-08-19T12:59:37;7.27;;;4.07;;
47762;SDS011;33526;42.690;23.322;2022-08-19T13:02:03;7.78;;;5.05;;
47762;SDS011;33526;42.690;23.322;2022-08-19T13:04:31;8.02;;;4.13;;
47762;SDS011;33526;42.690;23.322;2022-08-19T13:07:01;9.90;;;4.63;;
47762;SDS011;33526;42.690;23.322;2022-08-19T13:09:27;9.40;;;6.03;;
47762;SDS011;33526;42.690;23.322;2022-08-19T13:11:53;5.93;;;4.47;;
47762;SDS011;33526;42.690;23.322;2022-08-19T13:14:18;4.60;;;4.20;;
47762;SDS011;33526;42.690;23.322;2022-08-19T13:16:44;5.47;;;4.33;;
47762;SDS011;33526;42.690;23.322;2022-08-19T13:19:09;8.47;;;4.50;;
47762;SDS011;33526;42.690;23.322;2022-08-19T13:21:38;6.20;;;4.03;;
47762;SDS011;33526;42.690;23.322;2022-08-19T13:24:03;5.95;;;4.45;;
47762;SDS011;33526;42.690;23.322;2022-08-19T13:26:29;7.60;;;4.63;;
47762;SDS011;33526;42.690;23.322;2022-08-19T13:28:55;6.03;;;4.57;;
47762;SDS011;33526;42.690;23.322;2022-08-19T13:31:39;7.78;;;3.75;;
47762;SDS011;33526;42.690;23.322;2022-08-19T13:34:33;4.55;;;4.03;;
47762;SDS011;33526;42.690;23.322;2022-08-19T13:37:02;7.78;;;4.20;;
47762;SDS011;33526;42.690;23.322;2022-08-19T13:39:29;8.15;;;4.18;;
47762;SDS011;33526;42.690;23.322;2022-08-19T13:41:55;6.47;;;4.20;;
47762;SDS011;33526;42.690;23.322;2022-08-19T13:44:21;7.43;;;4.30;;
47762;SDS011;33526;42.690;23.322;2022-08-19T13:46:47;7.93;;;5.17;;
47762;SDS011;33526;42.690;23.322;2022-08-19T13:49:14;5.40;;;4.80;;
47762;SDS011;33526;42.690;23.322;2022-08-19T13:51:42;5.50;;;3.92;;
47762;SDS011;33526;42.690;23.322;2022-08-19T13:54:08;5.93;;;5.00;;
47762;SDS011;33526;42.690;23.322;2022-08-19T13:56:35;8.23;;;4.28;;
47762;SDS011;33526;42.690;23.322;2022-08-19T13:59:05;7.20;;;3.88;;
47762;SDS011;33526;42.690;23.322;2022-08-19T14:01:32;10.17;;;4.47;;
47762;SDS011;33526;42.690;23.322;2022-08-19T14:03:58;8.02;;;4.53;;
47762;SDS011;33526;42.690;23.322;2022-08-19T14:06:24;4.67;;;4.27;;
47762;SDS011;33526;42.690;23.322;2022-08-19T14:08:50;9.20;;;4.80;;
47762;SDS011;33526;42.690;23.322;2022-08-19T14:11:17;11.52;;;4.97;;
47762;SDS011;33526;42.690;23.322;2022-08-19T14:13:43;8.70;;;4.57;;
47762;SDS011;33526;42.690;23.322;2022-08-19T14:16:10;11.52;;;4.78;;
47762;SDS011;33526;42.690;23.322;2022-08-19T14:18:37;8.77;;;4.53;;
47762;SDS011;33526;42.690;23.322;2022-08-19T14:21:05;6.82;;;4.00;;
47762;SDS011;33526;42.690;23.322;2022-08-19T14:23:33;5.38;;;4.22;;
47762;SDS011;33526;42.690;23.322;2022-08-19T14:26:08;6.63;;;4.53;;
47762;SDS011;33526;42.690;23.322;2022-08-19T14:28:36;8.65;;;4.60;;
47762;SDS011;33526;42.690;23.322;2022-08-19T14:31:02;6.38;;;4.85;;
47762;SDS011;33526;42.690;23.322;2022-08-19T14:33:29;7.60;;;4.83;;
47762;SDS011;33526;42.690;23.322;2022-08-19T14:35:55;8.57;;;4.70;;
47762;SDS011;33526;42.690;23.322;2022-08-19T14:38:20;16.53;;;12.63;;
47762;SDS011;33526;42.690;23.322;2022-08-19T14:40:46;9.57;;;4.97;;
47762;SDS011;33526;42.690;23.322;2022-08-19T14:43:11;9.53;;;4.87;;
47762;SDS011;33526;42.690;23.322;2022-08-19T14:45:37;6.73;;;5.03;;
47762;SDS011;33526;42.690;23.322;2022-08-19T14:48:04;6.60;;;4.20;;
47762;SDS011;33526;42.690;23.322;2022-08-19T14:50:32;7.75;;;4.65;;
47762;SDS011;33526;42.690;23.322;2022-08-19T14:53:02;5.68;;;4.43;;
47762;SDS011;33526;42.690;23.322;2022-08-19T14:55:30;4.70;;;4.20;;
47762;SDS011;33526;42.690;23.322;2022-08-19T14:57:57;7.55;;;4.85;;
47762;SDS011;33526;42.690;23.322;2022-08-19T15:00:23;10.73;;;4.63;;
47762;SDS011;33526;42.690;23.322;2022-08-19T15:02:51;5.05;;;4.55;;
47762;SDS011;33526;42.690;23.322;2022-08-19T15:05:16;8.25;;;4.85;;
47762;SDS011;33526;42.690;23.322;2022-08-19T15:07:46;5.57;;;5.07;;
47762;SDS011;33526;42.690;23.322;2022-08-19T15:10:12;12.30;;;4.53;;